createdAt,value
2022-10-29T00:01:25.153Z,18.30
2022-10-29T00:03:51.995Z,18.30
2022-10-29T00:06:18.776Z,18.30
2022-10-29T00:08:45.817Z,18.20
2022-10-29T00:11:14.848Z,18.30
2022-10-29T00:13:42.131Z,18.20
2022-10-29T00:16:09.887Z,18.40
2022-10-29T00:18:36.738Z,18.40
2022-10-29T00:21:04.573Z,18.40
2022-10-29T00:23:31.616Z,18.40
2022-10-29T00:25:58.676Z,18.40
2022-10-29T00:28:27.262Z,18.40
2022-10-29T00:30:54.104Z,18.40
2022-10-29T00:33:21.111Z,18.30
2022-10-29T00:35:54.672Z,18.30
2022-10-29T00:38:21.457Z,18.20
2022-10-29T00:40:48.298Z,18.20
2022-10-29T00:43:15.573Z,18.00
2022-10-29T00:45:46.794Z,17.80
2022-10-29T00:48:13.615Z,17.90
2022-10-29T00:50:40.482Z,17.90
2022-10-29T00:53:07.340Z,17.90
2022-10-29T00:55:34.134Z,17.90
2022-10-29T00:58:00.961Z,17.90
2022-10-29T01:00:27.880Z,17.80
2022-10-29T01:02:56.293Z,17.80
2022-10-29T01:05:37.107Z,17.80
2022-10-29T01:08:04.190Z,17.70
2022-10-29T01:10:37.881Z,17.70
2022-10-29T01:13:13.998Z,17.80
2022-10-29T01:15:43.173Z,17.70
2022-10-29T01:18:15.746Z,17.70
2022-10-29T01:21:03.361Z,17.60
2022-10-29T01:23:47.778Z,17.60
2022-10-29T01:26:28.630Z,17.50
2022-10-29T01:29:01.944Z,17.40
2022-10-29T01:31:31.038Z,17.40
2022-10-29T01:34:01.187Z,17.40
2022-10-29T01:36:29.194Z,17.30
2022-10-29T01:39:01.747Z,17.30
2022-10-29T01:41:32.607Z,17.20
2022-10-29T01:44:05.389Z,17.00
2022-10-29T01:46:36.892Z,16.90
2022-10-29T01:49:05.919Z,17.00
2022-10-29T01:51:34.188Z,16.90
2022-10-29T01:54:01.399Z,17.00
2022-10-29T01:56:28.239Z,16.90
2022-10-29T01:58:57.172Z,16.90
2022-10-29T02:01:31.503Z,16.70
2022-10-29T02:04:06.367Z,16.80
2022-10-29T02:06:36.570Z,16.70
2022-10-29T02:09:08.121Z,16.50
2022-10-29T02:11:40.292Z,16.50
2022-10-29T02:14:10.509Z,16.70
2022-10-29T02:16:38.036Z,16.60
2022-10-29T02:19:07.143Z,16.90
2022-10-29T02:21:34.131Z,17.00
2022-10-29T02:24:01.051Z,17.10
2022-10-29T02:26:28.107Z,17.30
2022-10-29T02:28:55.206Z,17.30
2022-10-29T02:31:22.252Z,17.40
2022-10-29T02:35:19.345Z,17.30
2022-10-29T02:37:46.356Z,16.90
2022-10-29T02:40:13.775Z,16.80
2022-10-29T02:42:41.043Z,16.80
2022-10-29T02:45:08.807Z,16.90
2022-10-29T02:47:35.741Z,16.80
2022-10-29T02:50:02.740Z,16.80
2022-10-29T02:52:31.077Z,16.90
2022-10-29T02:54:58.033Z,16.90
2022-10-29T02:57:24.998Z,16.90
2022-10-29T02:59:52.052Z,16.90
2022-10-29T03:02:19.177Z,16.90
2022-10-29T03:04:46.246Z,17.00
2022-10-29T03:07:13.295Z,17.00
2022-10-29T03:10:47.138Z,16.80
2022-10-29T03:13:14.881Z,16.90
2022-10-29T03:15:43.445Z,17.00
2022-10-29T03:18:10.290Z,17.10
2022-10-29T03:20:37.071Z,16.90
2022-10-29T03:23:04.330Z,16.80
2022-10-29T03:25:31.130Z,16.90
2022-10-29T03:27:59.418Z,16.90
2022-10-29T03:30:26.451Z,16.90
2022-10-29T03:33:18.585Z,16.90
2022-10-29T03:35:45.503Z,16.90
2022-10-29T03:38:12.755Z,16.90
2022-10-29T03:40:40.592Z,16.90
2022-10-29T03:43:07.424Z,17.00
2022-10-29T03:45:34.396Z,17.00
2022-10-29T03:48:03.809Z,17.00
2022-10-29T03:50:32.327Z,17.00
2022-10-29T03:52:59.586Z,17.00
2022-10-29T03:55:29.078Z,17.20
2022-10-29T03:57:56.302Z,17.00
2022-10-29T04:00:23.781Z,17.10
2022-10-29T04:02:50.786Z,17.00
2022-10-29T04:05:17.923Z,17.00
2022-10-29T04:07:46.460Z,17.00
2022-10-29T04:10:13.232Z,16.80
2022-10-29T04:12:44.666Z,16.70
2022-10-29T04:15:11.481Z,16.90
2022-10-29T04:17:38.406Z,16.80
2022-10-29T04:20:13.764Z,16.70
2022-10-29T04:28:44.266Z,16.90
2022-10-29T04:31:14.502Z,17.10
2022-10-29T04:33:41.655Z,17.10
2022-10-29T04:36:08.986Z,17.10
2022-10-29T04:38:37.353Z,17.00
2022-10-29T04:41:04.790Z,17.10
2022-10-29T04:43:32.969Z,17.30
2022-10-29T04:45:59.757Z,17.20
2022-10-29T04:48:28.111Z,17.20
2022-10-29T04:50:55.177Z,17.20
2022-10-29T04:53:22.148Z,17.20
2022-10-29T04:55:50.347Z,17.30
2022-10-29T04:58:18.017Z,17.20
2022-10-29T05:00:45.814Z,17.30
2022-10-29T05:03:12.677Z,17.40
2022-10-29T05:05:40.122Z,17.40
2022-10-29T05:08:07.410Z,17.60
2022-10-29T05:10:35.438Z,17.40
2022-10-29T05:13:05.007Z,17.40
2022-10-29T05:15:32.003Z,17.30
2022-10-29T05:17:59.647Z,17.30
2022-10-29T05:20:27.382Z,17.40
2022-10-29T05:23:00.072Z,17.50
2022-10-29T05:25:27.373Z,17.60
2022-10-29T05:28:09.133Z,17.70
2022-10-29T05:30:37.823Z,17.70
2022-10-29T05:33:05.875Z,17.70
2022-10-29T05:35:32.946Z,17.80
2022-10-29T05:38:00.809Z,17.90
2022-10-29T05:40:27.622Z,17.70
2022-10-29T05:42:54.533Z,17.90
2022-10-29T05:45:21.843Z,17.80
2022-10-29T05:47:56.552Z,17.90
2022-10-29T05:50:24.519Z,17.80
2022-10-29T05:52:56.047Z,17.80
2022-10-29T05:55:23.226Z,17.80
2022-10-29T05:57:50.151Z,17.80
2022-10-29T06:00:17.087Z,17.70
2022-10-29T06:02:44.365Z,17.70
2022-10-29T06:05:13.011Z,17.70
2022-10-29T06:07:39.863Z,17.70
2022-10-29T06:10:07.610Z,17.50
2022-10-29T06:12:35.084Z,17.50
2022-10-29T06:15:02.497Z,17.50
2022-10-29T06:17:29.416Z,17.60
2022-10-29T06:19:56.221Z,17.70
2022-10-29T06:22:24.626Z,17.70
2022-10-29T06:24:51.706Z,17.60
2022-10-29T06:27:18.532Z,17.80
2022-10-29T06:29:45.357Z,18.00
2022-10-29T06:32:12.318Z,17.90
2022-10-29T06:34:39.122Z,18.00
2022-10-29T06:37:06.025Z,18.10
2022-10-29T06:39:34.504Z,18.00
2022-10-29T06:42:01.256Z,17.90
2022-10-29T06:44:30.137Z,17.80
2022-10-29T06:46:56.991Z,17.80
2022-10-29T06:49:23.907Z,17.80
2022-10-29T06:51:51.570Z,17.90
2022-10-29T06:54:18.352Z,18.00
2022-10-29T06:56:46.639Z,17.70
2022-10-29T06:59:13.443Z,17.70
2022-10-29T07:01:40.408Z,17.80
2022-10-29T07:04:07.285Z,17.60
2022-10-29T07:06:34.615Z,17.60
2022-10-29T07:09:01.845Z,17.90
2022-10-29T07:11:28.813Z,18.10
2022-10-29T07:13:57.174Z,18.00
2022-10-29T07:16:24.188Z,18.10
2022-10-29T07:18:51.197Z,17.90
2022-10-29T07:21:18.077Z,17.90
2022-10-29T07:23:45.150Z,18.10
2022-10-29T07:26:12.274Z,18.30
2022-10-29T07:28:39.066Z,18.10
2022-10-29T07:31:08.018Z,18.20
2022-10-29T07:33:34.866Z,18.50
2022-10-29T07:36:01.782Z,18.70
2022-10-29T07:38:28.768Z,18.70
2022-10-29T07:40:55.678Z,18.60
2022-10-29T07:43:23.139Z,19.00
2022-10-29T07:45:50.583Z,18.90
2022-10-29T07:48:19.158Z,19.30
2022-10-29T07:50:46.443Z,19.60
2022-10-29T07:53:13.221Z,19.60
2022-10-29T07:55:39.985Z,19.70
2022-10-29T07:58:09.891Z,19.80
2022-10-29T08:00:38.166Z,19.90
2022-10-29T08:03:05.769Z,20.10
2022-10-29T08:05:34.477Z,20.30
2022-10-29T08:08:05.552Z,20.30
2022-10-29T08:10:33.497Z,20.40
2022-10-29T08:13:01.452Z,20.40
2022-10-29T08:15:32.311Z,20.40
2022-10-29T08:17:59.435Z,20.60
2022-10-29T08:20:26.855Z,20.60
2022-10-29T08:22:55.634Z,20.80
2022-10-29T08:25:22.799Z,20.70
2022-10-29T08:27:58.168Z,20.80
2022-10-29T08:30:24.923Z,20.70
2022-10-29T08:32:51.775Z,20.70
2022-10-29T08:35:18.823Z,20.40
2022-10-29T08:37:45.697Z,20.60
2022-10-29T08:40:20.791Z,20.90
2022-10-29T08:42:58.584Z,21.60
2022-10-29T08:45:29.225Z,22.10
2022-10-29T08:48:08.138Z,22.40
2022-10-29T08:50:41.045Z,22.60
2022-10-29T08:53:23.631Z,22.20
2022-10-29T08:55:52.961Z,22.40
2022-10-29T08:58:23.066Z,22.60
2022-10-29T09:00:53.004Z,23.10
2022-10-29T09:03:20.360Z,23.70
2022-10-29T09:05:49.947Z,24.40
2022-10-29T09:08:29.984Z,24.30
2022-10-29T09:11:01.498Z,23.80
2022-10-29T09:13:32.837Z,23.40
2022-10-29T09:16:14.507Z,22.90
2022-10-29T09:18:50.611Z,23.10
2022-10-29T09:21:29.558Z,22.90
2022-10-29T09:24:05.065Z,23.10
2022-10-29T09:26:36.485Z,23.00
2022-10-29T09:29:10.462Z,22.70
2022-10-29T09:31:40.985Z,22.80
2022-10-29T09:34:13.669Z,23.10
2022-10-29T09:36:41.077Z,23.10
2022-10-29T09:39:11.921Z,23.00
2022-10-29T09:41:41.188Z,23.10
2022-10-29T09:44:14.658Z,23.00
2022-10-29T09:46:47.567Z,22.60
2022-10-29T09:49:23.767Z,22.60
2022-10-29T09:51:52.967Z,22.70
2022-10-29T09:54:20.190Z,23.10
2022-10-29T09:56:53.316Z,22.90
2022-10-29T09:59:31.172Z,22.70
2022-10-29T10:01:58.707Z,22.40
2022-10-29T10:04:28.487Z,22.30
2022-10-29T10:07:02.966Z,22.30
2022-10-29T10:09:30.040Z,22.20
2022-10-29T10:11:59.587Z,22.50
2022-10-29T10:14:27.467Z,22.40
2022-10-29T10:16:57.336Z,22.40
2022-10-29T10:19:25.201Z,22.30
2022-10-29T10:22:04.266Z,22.40
2022-10-29T10:24:31.933Z,22.70
2022-10-29T10:27:00.285Z,23.00
2022-10-29T10:29:27.389Z,23.40
2022-10-29T10:32:09.182Z,24.30
2022-10-29T10:34:36.914Z,24.90
2022-10-29T10:37:04.474Z,25.90
2022-10-29T10:39:35.754Z,26.40
2022-10-29T10:42:05.887Z,26.50
2022-10-29T10:44:34.017Z,26.30
2022-10-29T10:47:07.722Z,26.00
2022-10-29T10:49:39.039Z,25.60
2022-10-29T10:52:07.445Z,25.30
2022-10-29T10:54:38.236Z,24.90
2022-10-29T10:57:19.629Z,24.40
2022-10-29T10:59:53.162Z,24.00
2022-10-29T11:02:27.375Z,24.00
2022-10-29T11:05:00.920Z,24.10
2022-10-29T11:07:32.890Z,24.10
2022-10-29T11:10:03.919Z,24.40
2022-10-29T11:12:37.009Z,24.70
2022-10-29T11:15:06.178Z,25.00
2022-10-29T11:17:38.870Z,25.20
2022-10-29T11:20:14.913Z,25.00
2022-10-29T11:22:47.148Z,25.10
2022-10-29T11:25:16.604Z,25.10
2022-10-29T11:27:47.840Z,25.20
2022-10-29T11:30:15.925Z,25.80
2022-10-29T11:32:55.328Z,25.80
2022-10-29T11:35:24.413Z,26.30
2022-10-29T11:37:56.848Z,26.70
2022-10-29T11:40:26.694Z,26.80
2022-10-29T11:42:55.103Z,27.70
2022-10-29T11:45:27.611Z,28.20
2022-10-29T11:48:03.286Z,28.00
2022-10-29T11:50:33.917Z,27.60
2022-10-29T11:53:06.377Z,27.40
2022-10-29T11:55:35.895Z,27.80
2022-10-29T11:58:10.432Z,28.80
2022-10-29T12:00:44.870Z,29.70
2022-10-29T12:03:24.126Z,29.60
2022-10-29T12:05:58.521Z,29.30
2022-10-29T12:08:30.651Z,28.80
2022-10-29T12:11:03.626Z,28.50
2022-10-29T12:13:41.181Z,28.20
2022-10-29T12:16:14.653Z,27.90
2022-10-29T12:18:46.704Z,27.70
2022-10-29T12:21:18.646Z,28.00
2022-10-29T12:23:51.996Z,28.10
2022-10-29T12:26:26.486Z,28.30
2022-10-29T12:28:58.757Z,29.10
2022-10-29T12:31:30.004Z,29.80
2022-10-29T12:34:01.012Z,30.50
2022-10-29T12:36:32.760Z,30.90
2022-10-29T12:39:01.427Z,31.20
2022-10-29T12:41:34.969Z,31.00
2022-10-29T12:44:10.065Z,30.60
2022-10-29T12:46:43.100Z,30.60
2022-10-29T12:49:19.370Z,30.50
2022-10-29T12:51:51.463Z,30.20
2022-10-29T12:54:32.045Z,30.10
2022-10-29T12:57:03.850Z,29.90
2022-10-29T12:59:34.464Z,30.10
2022-10-29T13:02:32.175Z,30.20
2022-10-29T13:05:18.338Z,29.30
2022-10-29T13:08:31.725Z,28.80
2022-10-29T13:10:59.139Z,28.40
2022-10-29T13:13:49.818Z,27.90
2022-10-29T13:16:19.653Z,27.20
2022-10-29T13:19:00.202Z,26.80
2022-10-29T13:21:45.841Z,27.00
2022-10-29T13:24:16.164Z,27.20
2022-10-29T13:26:57.122Z,27.10
2022-10-29T13:29:40.102Z,27.10
2022-10-29T13:32:09.405Z,27.00
2022-10-29T13:34:56.928Z,27.10
2022-10-29T13:37:58.250Z,26.90
2022-10-29T13:40:41.582Z,27.20
2022-10-29T13:43:14.592Z,26.70
2022-10-29T13:45:43.050Z,26.70
2022-10-29T13:48:17.226Z,26.80
2022-10-29T13:50:47.982Z,26.60
2022-10-29T13:53:15.871Z,26.50
2022-10-29T13:55:46.351Z,26.80
2022-10-29T13:58:14.858Z,26.80
2022-10-29T14:00:43.708Z,26.90
2022-10-29T14:03:15.193Z,27.00
2022-10-29T14:05:45.861Z,27.00
2022-10-29T14:08:16.389Z,26.90
2022-10-29T14:10:45.383Z,26.90
2022-10-29T14:13:28.777Z,26.90
2022-10-29T14:16:02.824Z,27.00
2022-10-29T14:18:31.103Z,27.10
2022-10-29T14:20:59.900Z,26.80
2022-10-29T14:23:27.203Z,26.90
2022-10-29T14:25:54.954Z,26.80
2022-10-29T14:28:24.103Z,26.90
2022-10-29T14:30:59.348Z,26.80
2022-10-29T14:33:27.631Z,26.50
2022-10-29T14:35:56.797Z,26.20
2022-10-29T14:38:29.739Z,26.40
2022-10-29T14:40:56.605Z,26.50
2022-10-29T14:43:26.650Z,26.50
2022-10-29T14:45:54.474Z,26.40
2022-10-29T14:48:21.349Z,26.50
2022-10-29T14:50:49.581Z,26.70
2022-10-29T14:53:24.723Z,26.60
2022-10-29T14:55:53.197Z,26.50
2022-10-29T14:58:21.170Z,26.30
2022-10-29T15:00:53.645Z,26.40
2022-10-29T15:03:23.613Z,26.40
2022-10-29T15:05:51.454Z,25.90
2022-10-29T15:08:25.015Z,25.80
2022-10-29T15:10:55.558Z,25.70
2022-10-29T15:13:30.432Z,25.40
2022-10-29T15:16:03.742Z,25.30
2022-10-29T15:18:32.556Z,25.20
2022-10-29T15:20:59.901Z,25.20
2022-10-29T15:23:29.318Z,25.30
2022-10-29T15:26:02.887Z,25.20
2022-10-29T15:28:30.599Z,24.90
2022-10-29T15:31:01.033Z,24.60
2022-10-29T15:33:29.112Z,24.60
2022-10-29T15:35:57.395Z,24.40
2022-10-29T15:38:42.729Z,24.30
2022-10-29T15:41:29.655Z,24.40
2022-10-29T15:44:03.029Z,24.40
2022-10-29T15:46:34.222Z,24.40
2022-10-29T15:49:01.432Z,24.10
2022-10-29T15:51:29.124Z,24.20
2022-10-29T15:53:57.752Z,24.10
2022-10-29T15:56:26.358Z,24.00
2022-10-29T15:58:53.474Z,24.00
2022-10-29T16:01:20.843Z,23.90
2022-10-29T16:03:48.034Z,23.60
2022-10-29T16:06:15.587Z,23.60
2022-10-29T16:08:43.901Z,23.50
2022-10-29T16:11:13.939Z,23.30
2022-10-29T16:13:42.509Z,23.10
2022-10-29T16:16:13.637Z,22.90
2022-10-29T16:18:40.495Z,23.00
2022-10-29T16:21:07.794Z,22.80
2022-10-29T16:23:36.707Z,22.70
2022-10-29T16:26:03.596Z,22.70
2022-10-29T16:28:30.688Z,22.70
2022-10-29T16:31:01.229Z,22.60
2022-10-29T16:33:28.418Z,22.50
2022-10-29T16:35:55.435Z,22.50
2022-10-29T16:38:22.454Z,22.50
2022-10-29T16:40:53.704Z,22.60
2022-10-29T16:43:20.751Z,22.40
2022-10-29T16:45:47.685Z,22.20
2022-10-29T16:48:16.068Z,22.10
2022-10-29T16:50:43.084Z,22.10
2022-10-29T16:53:11.131Z,22.00
2022-10-29T16:55:38.822Z,22.30
2022-10-29T17:00:39.383Z,22.10
2022-10-29T17:03:10.967Z,22.20
2022-10-29T17:05:40.520Z,21.90
2022-10-29T17:08:08.131Z,22.00
2022-10-29T17:10:35.856Z,21.90
2022-10-29T17:13:03.599Z,21.90
2022-10-29T17:15:30.842Z,22.10
2022-10-29T17:18:00.158Z,21.90
2022-10-29T17:20:27.958Z,21.60
2022-10-29T17:22:55.087Z,21.70
2022-10-29T17:25:22.262Z,21.60
2022-10-29T17:27:49.204Z,21.50
2022-10-29T17:30:16.137Z,21.50
2022-10-29T17:32:43.050Z,21.70
2022-10-29T17:35:11.395Z,21.80
2022-10-29T17:37:38.293Z,22.00
2022-10-29T17:40:07.960Z,21.90
2022-10-29T17:42:35.588Z,21.80
2022-10-29T17:45:02.479Z,22.00
2022-10-29T17:47:29.765Z,21.90
2022-10-29T17:49:56.981Z,22.00
2022-10-29T17:52:25.374Z,22.00
2022-10-29T17:54:52.368Z,21.80
2022-10-29T17:57:19.284Z,21.70
2022-10-29T17:59:46.222Z,21.50
2022-10-29T18:02:13.555Z,21.60
2022-10-29T18:04:40.556Z,21.80
2022-10-29T18:07:07.432Z,21.90
2022-10-29T18:09:35.974Z,22.10
2022-10-29T18:12:02.968Z,22.20
2022-10-29T18:14:30.202Z,22.40
2022-10-29T18:16:57.091Z,22.20
2022-10-29T18:19:24.050Z,22.30
2022-10-29T18:21:51.325Z,22.20
2022-10-29T18:24:19.421Z,22.20
2022-10-29T18:26:50.530Z,22.30
2022-10-29T18:29:17.518Z,22.30
2022-10-29T18:31:47.286Z,22.30
2022-10-29T18:34:15.186Z,22.10
2022-10-29T18:36:43.098Z,22.20
2022-10-29T18:39:10.202Z,22.20
2022-10-29T18:41:37.123Z,22.20
2022-10-29T18:44:05.612Z,22.20
2022-10-29T18:46:32.773Z,22.30
2022-10-29T18:48:59.984Z,22.10
2022-10-29T18:51:27.550Z,22.20
2022-10-29T18:53:55.293Z,22.00
2022-10-29T18:56:22.730Z,22.00
2022-10-29T18:58:49.983Z,21.70
2022-10-29T19:01:19.356Z,21.80
2022-10-29T19:03:48.884Z,21.60
2022-10-29T19:06:15.890Z,21.80
2022-10-29T19:08:44.109Z,21.80
2022-10-29T19:11:12.143Z,21.80
2022-10-29T19:13:39.117Z,21.70
2022-10-29T19:16:07.507Z,21.80
2022-10-29T19:18:37.360Z,21.70
2022-10-29T19:21:05.281Z,21.70
2022-10-29T19:23:32.537Z,21.60
2022-10-29T19:26:02.093Z,21.70
2022-10-29T19:28:29.024Z,21.80
2022-10-29T19:31:00.462Z,21.80
2022-10-29T19:33:27.470Z,21.90
2022-10-29T19:35:56.175Z,22.00
2022-10-29T19:38:23.096Z,22.00
2022-10-29T19:40:49.992Z,21.90
2022-10-29T19:43:17.049Z,21.90
2022-10-29T19:45:44.528Z,21.90
2022-10-29T19:48:11.645Z,22.00
2022-10-29T19:50:38.507Z,22.00
2022-10-29T19:53:08.035Z,22.00
2022-10-29T19:55:34.993Z,21.90
2022-10-29T19:58:01.863Z,22.00
2022-10-29T20:00:28.750Z,22.10
2022-10-29T20:02:55.958Z,22.20
2022-10-29T20:05:23.173Z,22.00
2022-10-29T20:07:50.104Z,22.10
2022-10-29T20:10:18.504Z,22.10
2022-10-29T20:12:45.328Z,22.00
2022-10-29T20:15:12.364Z,22.10
2022-10-29T20:17:39.201Z,22.00
2022-10-29T20:20:06.562Z,22.00
2022-10-29T20:22:33.393Z,22.10
2022-10-29T20:25:00.287Z,22.10
2022-10-29T20:27:28.479Z,22.00
2022-10-29T20:29:55.320Z,22.10
2022-10-29T20:32:25.585Z,22.20
2022-10-29T20:34:52.724Z,22.10
2022-10-29T20:37:20.108Z,22.10
2022-10-29T20:39:46.894Z,22.20
2022-10-29T20:42:13.745Z,22.00
2022-10-29T20:44:41.923Z,22.10
2022-10-29T20:47:08.736Z,21.80
2022-10-29T20:49:35.517Z,21.90
2022-10-29T20:52:03.388Z,21.70
2022-10-29T20:54:30.248Z,21.80
2022-10-29T20:56:57.046Z,21.80
2022-10-29T20:59:23.991Z,21.90
2022-10-29T21:01:52.477Z,22.00
2022-10-29T21:04:19.382Z,21.80
2022-10-29T21:06:46.240Z,21.80
2022-10-29T21:09:13.082Z,21.80
2022-10-29T21:11:40.876Z,21.80
2022-10-29T21:14:07.684Z,21.80
2022-10-29T21:16:34.829Z,21.60
2022-10-29T21:19:05.177Z,21.70
2022-10-29T21:21:32.258Z,21.70
2022-10-29T21:23:59.142Z,21.80
2022-10-29T21:26:26.860Z,21.80
2022-10-29T21:28:54.672Z,21.80
2022-10-29T21:31:22.759Z,21.70
2022-10-29T21:33:51.027Z,21.80
2022-10-29T21:36:19.954Z,21.60
2022-10-29T21:38:48.178Z,21.50
2022-10-29T21:41:15.016Z,21.30
2022-10-29T21:43:41.998Z,21.20
2022-10-29T21:46:08.844Z,21.10
2022-10-29T21:48:35.920Z,20.90
2022-10-29T21:51:03.737Z,20.90
2022-10-29T21:53:32.431Z,21.20
2022-10-29T21:56:00.104Z,21.20
2022-10-29T21:58:27.150Z,21.20
2022-10-29T22:01:01.504Z,21.10
2022-10-29T22:03:30.026Z,21.10
2022-10-29T22:06:00.840Z,21.10
2022-10-29T22:08:27.694Z,21.20
2022-10-29T22:10:57.937Z,21.20
2022-10-29T22:13:24.879Z,21.20
2022-10-29T22:15:51.742Z,21.10
2022-10-29T22:18:18.602Z,21.20
2022-10-29T22:20:45.405Z,21.10
2022-10-29T22:23:12.270Z,21.10
2022-10-29T22:25:39.443Z,21.10
2022-10-29T22:28:07.707Z,21.00
2022-10-29T22:30:36.264Z,21.00
2022-10-29T22:33:03.124Z,20.90
2022-10-29T22:35:29.955Z,20.80
2022-10-29T22:40:23.677Z,20.80
2022-10-29T22:42:50.509Z,20.60
2022-10-29T22:45:19.195Z,20.70
2022-10-29T22:47:46.264Z,20.60
2022-10-29T22:50:13.068Z,20.70
2022-10-29T22:55:12.071Z,20.50
2022-10-29T22:57:39.039Z,20.50
2022-10-29T23:00:07.297Z,20.50
2022-10-29T23:02:35.583Z,20.50
2022-10-29T23:05:02.582Z,20.50
2022-10-29T23:07:29.740Z,20.20
2022-10-29T23:09:56.711Z,20.10
2022-10-29T23:12:23.482Z,20.10
2022-10-29T23:14:50.313Z,20.00
2022-10-29T23:17:19.959Z,19.90
2022-10-29T23:19:48.104Z,20.00
2022-10-29T23:24:46.710Z,20.00
2022-10-29T23:27:13.666Z,20.00
2022-10-29T23:29:40.427Z,19.70
2022-10-29T23:32:07.193Z,19.60
2022-10-29T23:34:33.969Z,19.70
2022-10-29T23:37:04.357Z,19.60
2022-10-29T23:39:33.907Z,19.70
2022-10-29T23:42:00.725Z,19.90
2022-10-29T23:44:27.548Z,19.90
2022-10-29T23:46:54.325Z,19.90
2022-10-29T23:49:21.153Z,19.90
2022-10-29T23:51:47.952Z,19.90
2022-10-29T23:54:16.299Z,19.80
2022-10-29T23:56:43.221Z,19.90
2022-10-29T23:59:10.023Z,19.80
